Time;durP1;ratioP1;P1;durP2;ratioP2;P2;SDS_P1;SDS_P2;PMS_P1;PMS_P2;Temp;Humidity;BMP_temperature;BMP_pressure;BME280_temperature;BME280_humidity;BME280_pressure;Samples;Min_cycle;Max_cycle;Signal;HPM_P1;HPM_P2
2022/04/24 00:01:41;;;;;;;18.90;12.13;;;;;;;;;;5070620;28;20085;-68
2022/04/24 00:04:07;;;;;;;23.77;12.15;;;;;;;;;;5063097;28;20028;-67
2022/04/24 00:06:34;;;;;;;21.27;11.07;;;;;;;;;;5070207;28;20021;-68
2022/04/24 00:09:00;;;;;;;19.13;10.88;;;;;;;;;;5070168;28;20029;-68
2022/04/24 00:11:27;;;;;;;22.83;11.57;;;;;;;;;;5069322;28;20082;-68
2022/04/24 00:13:53;;;;;;;20.80;11.35;;;;;;;;;;5070103;28;20577;-68
2022/04/24 00:16:19;;;;;;;18.17;11.48;;;;;;;;;;5081931;28;20020;-68
2022/04/24 00:18:45;;;;;;;20.90;11.80;;;;;;;;;;5079486;28;20075;-68
2022/04/24 00:21:11;;;;;;;21.45;11.25;;;;;;;;;;5062243;28;20095;-68
2022/04/24 00:23:37;;;;;;;20.15;11.45;;;;;;;;;;5055638;28;20025;-67
2022/04/24 00:26:03;;;;;;;23.90;12.18;;;;;;;;;;5076859;28;20024;-68
2022/04/24 00:28:29;;;;;;;23.85;11.77;;;;;;;;;;5077139;28;20020;-68
2022/04/24 00:30:55;;;;;;;19.42;11.57;;;;;;;;;;5069047;28;20527;-67
2022/04/24 00:33:22;;;;;;;22.17;12.07;;;;;;;;;;5070172;28;20028;-67
2022/04/24 00:35:48;;;;;;;18.65;10.55;;;;;;;;;;5070448;28;20131;-68
2022/04/24 00:38:14;;;;;;;20.33;10.60;;;;;;;;;;5075370;28;20104;-67
2022/04/24 00:40:40;;;;;;;23.85;10.32;;;;;;;;;;5065033;28;20462;-68
2022/04/24 00:43:06;;;;;;;20.63;11.68;;;;;;;;;;5070996;28;20020;-68
2022/04/24 00:45:32;;;;;;;23.35;12.93;;;;;;;;;;5071272;28;20035;-67
2022/04/24 00:47:58;;;;;;;25.80;12.60;;;;;;;;;;5080026;28;20016;-68
2022/04/24 00:50:25;;;;;;;24.52;11.68;;;;;;;;;;5070154;28;20489;-68
2022/04/24 00:52:51;;;;;;;22.33;13.25;;;;;;;;;;5072198;28;20039;-67
2022/04/24 00:55:22;;;;;;;21.60;12.70;;;;;;;;;;5063629;28;20039;-67
2022/04/24 00:57:48;;;;;;;23.17;13.30;;;;;;;;;;5072000;28;20028;-67
2022/04/24 01:00:15;;;;;;;29.10;16.13;;;;;;;;;;5087746;28;20092;-67
2022/04/24 01:02:42;;;;;;;27.27;14.45;;;;;;;;;;5046012;28;20029;-67
2022/04/24 01:05:08;;;;;;;26.20;13.65;;;;;;;;;;5069338;28;20026;-68
2022/04/24 01:07:35;;;;;;;27.42;12.25;;;;;;;;;;5069782;28;20016;-67
2022/04/24 01:10:09;;;;;;;20.50;12.57;;;;;;;;;;5069454;28;20059;-67
2022/04/24 01:12:37;;;;;;;25.50;12.68;;;;;;;;;;5054904;28;20090;-67
2022/04/24 01:15:07;;;;;;;27.92;13.45;;;;;;;;;;5069821;28;20041;-67
2022/04/24 01:17:34;;;;;;;23.70;12.80;;;;;;;;;;5069876;28;20066;-67
2022/04/24 01:20:01;;;;;;;26.83;14.32;;;;;;;;;;5069372;28;20718;-67
2022/04/24 01:22:27;;;;;;;23.73;11.90;;;;;;;;;;5064657;28;20082;-67
2022/04/24 01:24:53;;;;;;;20.17;11.80;;;;;;;;;;5065922;28;20016;-68
2022/04/24 01:27:19;;;;;;;20.63;12.07;;;;;;;;;;5070180;28;20382;-67
2022/04/24 01:29:45;;;;;;;25.42;13.18;;;;;;;;;;5078475;28;20098;-67
2022/04/24 01:32:11;;;;;;;28.40;14.27;;;;;;;;;;5077211;28;20528;-67
2022/04/24 01:34:37;;;;;;;25.52;14.02;;;;;;;;;;5075899;28;20074;-67
2022/04/24 01:37:03;;;;;;;25.58;13.18;;;;;;;;;;5071529;28;20099;-67
2022/04/24 01:39:29;;;;;;;25.17;14.10;;;;;;;;;;5069610;28;20031;-67
2022/04/24 02:03:41;;;;;;;20.83;12.38;;;;;;;;;;5072713;28;20095;-67
2022/04/24 02:06:07;;;;;;;27.40;13.85;;;;;;;;;;5068679;28;20064;-67
2022/04/24 02:08:37;;;;;;;24.33;13.63;;;;;;;;;;5068353;28;20115;-67
2022/04/24 02:11:04;;;;;;;28.35;13.93;;;;;;;;;;5078891;28;20023;-67
2022/04/24 02:13:30;;;;;;;28.98;14.38;;;;;;;;;;5069293;28;20023;-67
2022/04/24 02:15:56;;;;;;;25.73;13.07;;;;;;;;;;5078023;28;20528;-67
2022/04/24 02:18:22;;;;;;;26.85;14.07;;;;;;;;;;5061263;28;20033;-68
2022/04/24 02:20:48;;;;;;;23.85;12.23;;;;;;;;;;5069236;28;20028;-68
2022/04/24 02:23:14;;;;;;;26.83;13.30;;;;;;;;;;5077936;28;20052;-67
2022/04/24 02:25:40;;;;;;;26.85;14.98;;;;;;;;;;5074215;28;20020;-68
2022/04/24 02:28:07;;;;;;;26.60;13.88;;;;;;;;;;5072926;28;20028;-67
2022/04/24 02:30:33;;;;;;;26.65;14.05;;;;;;;;;;5071821;28;20021;-67
2022/04/24 02:33:00;;;;;;;23.98;13.60;;;;;;;;;;5073365;28;20528;-67
2022/04/24 02:35:27;;;;;;;23.58;13.40;;;;;;;;;;5073138;28;20036;-67
2022/04/24 02:37:53;;;;;;;23.10;12.48;;;;;;;;;;5072709;28;20066;-67
2022/04/24 02:40:22;;;;;;;27.38;13.85;;;;;;;;;;5091283;28;20051;-67
2022/04/24 02:42:52;;;;;;;26.45;14.23;;;;;;;;;;5082853;28;20065;-68
2022/04/24 02:45:18;;;;;;;28.42;14.95;;;;;;;;;;5072152;28;20021;-67
2022/04/24 02:47:45;;;;;;;28.63;14.50;;;;;;;;;;5080158;28;20522;-68
2022/04/24 02:50:11;;;;;;;28.58;14.45;;;;;;;;;;5078985;28;20017;-68
2022/04/24 02:52:53;;;;;;;27.90;15.13;;;;;;;;;;5072066;28;20532;-67
2022/04/24 02:55:20;;;;;;;25.98;13.65;;;;;;;;;;5064687;28;20019;-67
2022/04/24 02:57:46;;;;;;;29.70;14.98;;;;;;;;;;5063172;28;20123;-68
2022/04/24 03:00:14;;;;;;;25.27;14.75;;;;;;;;;;5064285;28;20095;-67
2022/04/24 03:02:44;;;;;;;25.15;13.30;;;;;;;;;;5071535;28;20025;-68
2022/04/24 03:05:17;;;;;;;27.42;13.45;;;;;;;;;;5068968;28;20048;-67
2022/04/24 03:07:44;;;;;;;26.98;13.75;;;;;;;;;;5072495;28;20063;-68
2022/04/24 03:10:10;;;;;;;23.27;12.80;;;;;;;;;;5088657;28;20024;-68
2022/04/24 03:12:37;;;;;;;25.02;13.65;;;;;;;;;;5072724;28;20024;-68
2022/04/24 03:15:04;;;;;;;26.52;14.48;;;;;;;;;;5083313;28;20474;-68
2022/04/24 03:17:32;;;;;;;26.90;14.40;;;;;;;;;;5078662;28;20039;-68
2022/04/24 03:19:58;;;;;;;25.85;13.35;;;;;;;;;;5075836;28;20138;-68
2022/04/24 03:22:25;;;;;;;24.42;13.40;;;;;;;;;;5070623;28;20032;-68
2022/04/24 03:24:51;;;;;;;25.42;12.27;;;;;;;;;;5068041;28;20024;-68
2022/04/24 03:27:16;;;;;;;25.20;11.75;;;;;;;;;;5072899;28;20027;-67
2022/04/24 03:29:43;;;;;;;30.25;12.65;;;;;;;;;;5078717;28;20566;-68
2022/04/24 03:32:09;;;;;;;25.90;13.20;;;;;;;;;;5070335;28;20485;-67
2022/04/24 03:34:37;;;;;;;30.08;14.48;;;;;;;;;;5069987;28;20385;-68
2022/04/24 03:37:03;;;;;;;26.38;13.38;;;;;;;;;;5067319;28;20056;-67
2022/04/24 03:39:29;;;;;;;26.75;13.02;;;;;;;;;;5061723;28;20036;-68
2022/04/24 03:41:56;;;;;;;26.83;13.13;;;;;;;;;;5068911;28;20035;-68
2022/04/24 03:44:22;;;;;;;25.27;13.73;;;;;;;;;;5070160;28;20082;-67
2022/04/24 03:46:48;;;;;;;25.58;12.60;;;;;;;;;;5069969;28;20016;-68
2022/04/24 03:49:14;;;;;;;25.02;13.48;;;;;;;;;;5078209;28;20024;-67
2022/04/24 03:51:41;;;;;;;26.83;13.23;;;;;;;;;;5069013;28;20013;-68
2022/04/24 03:54:07;;;;;;;24.17;14.07;;;;;;;;;;5069711;28;20107;-67
2022/04/24 03:56:33;;;;;;;30.63;14.63;;;;;;;;;;5069692;28;20107;-68
2022/04/24 03:58:59;;;;;;;27.08;13.13;;;;;;;;;;5069093;28;20397;-68
2022/04/24 04:01:25;;;;;;;27.27;12.77;;;;;;;;;;5069919;28;20074;-68
2022/04/24 04:03:51;;;;;;;29.65;13.98;;;;;;;;;;5069555;28;20462;-68
2022/04/24 04:06:17;;;;;;;34.60;15.05;;;;;;;;;;5068297;28;20032;-68
2022/04/24 04:08:43;;;;;;;30.63;13.60;;;;;;;;;;5069947;28;20033;-67
2022/04/24 04:11:09;;;;;;;30.50;13.77;;;;;;;;;;5068695;28;20094;-68
2022/04/24 04:13:35;;;;;;;32.38;12.85;;;;;;;;;;5069560;28;20016;-68
2022/04/24 04:16:02;;;;;;;27.88;13.40;;;;;;;;;;5078464;28;20024;-68
2022/04/24 04:18:28;;;;;;;27.48;13.88;;;;;;;;;;5076775;28;20028;-68
2022/04/24 04:20:54;;;;;;;17.83;9.43;;;;;;;;;;5077673;28;20039;-68
2022/04/24 04:23:20;;;;;;;24.02;13.77;;;;;;;;;;5069392;28;20063;-69
2022/04/24 04:25:46;;;;;;;19.15;9.77;;;;;;;;;;5076213;28;20059;-68
2022/04/24 04:28:12;;;;;;;27.23;14.15;;;;;;;;;;5069373;28;20035;-68
2022/04/24 04:30:38;;;;;;;24.35;12.85;;;;;;;;;;5083742;28;20047;-69
2022/04/24 04:33:04;;;;;;;21.65;11.70;;;;;;;;;;5078979;28;20032;-69
2022/04/24 04:35:30;;;;;;;20.08;10.25;;;;;;;;;;5071957;28;20028;-69
2022/04/24 04:37:56;;;;;;;16.02;8.82;;;;;;;;;;5075705;28;20095;-70
2022/04/24 04:40:22;;;;;;;15.15;7.53;;;;;;;;;;5073747;28;20523;-69
2022/04/24 04:42:49;;;;;;;12.40;6.93;;;;;;;;;;5081615;28;20106;-69
2022/04/24 04:45:15;;;;;;;9.45;5.90;;;;;;;;;;5060413;28;20074;-69
2022/04/24 04:47:41;;;;;;;10.18;5.38;;;;;;;;;;5062051;28;20025;-69
2022/04/24 04:50:07;;;;;;;9.35;5.60;;;;;;;;;;5070273;28;20030;-69
2022/04/24 04:52:34;;;;;;;8.35;4.80;;;;;;;;;;5076477;28;20684;-69
2022/04/24 04:55:01;;;;;;;8.77;5.18;;;;;;;;;;5079176;28;20032;-69
2022/04/24 04:57:27;;;;;;;9.20;4.35;;;;;;;;;;5068756;28;20025;-69
2022/04/24 04:59:53;;;;;;;8.63;3.10;;;;;;;;;;5075917;28;20036;-69
2022/04/24 05:02:19;;;;;;;7.45;4.03;;;;;;;;;;5077922;28;20044;-69
2022/04/24 05:04:45;;;;;;;7.10;3.92;;;;;;;;;;5076437;28;20034;-70
2022/04/24 05:07:11;;;;;;;8.70;4.25;;;;;;;;;;5075431;28;20107;-69
2022/04/24 05:09:38;;;;;;;5.18;3.58;;;;;;;;;;5077213;28;20477;-69
2022/04/24 05:12:04;;;;;;;6.35;3.00;;;;;;;;;;5078398;28;20027;-69
2022/04/24 05:14:31;;;;;;;5.32;2.88;;;;;;;;;;5078504;28;20052;-69
2022/04/24 05:16:57;;;;;;;6.13;3.10;;;;;;;;;;5076812;28;20163;-69
2022/04/24 05:19:23;;;;;;;6.00;2.83;;;;;;;;;;5077589;28;20072;-68
2022/04/24 05:21:49;;;;;;;6.50;1.88;;;;;;;;;;5069331;28;20029;-71
2022/04/24 05:24:15;;;;;;;3.60;2.22;;;;;;;;;;5071630;28;20024;-70
2022/04/24 05:26:41;;;;;;;3.50;1.92;;;;;;;;;;5078022;28;20013;-70
2022/04/24 05:29:07;;;;;;;1.13;1.05;;;;;;;;;;5070418;28;20016;-69
2022/04/24 05:31:34;;;;;;;2.53;1.55;;;;;;;;;;5075048;28;20008;-70
2022/04/24 05:34:00;;;;;;;2.47;1.48;;;;;;;;;;5069141;28;20024;-69
2022/04/24 05:36:26;;;;;;;2.53;1.60;;;;;;;;;;5075896;28;20037;-69
2022/04/24 05:38:52;;;;;;;3.38;1.50;;;;;;;;;;5076275;28;20136;-70
2022/04/24 05:41:18;;;;;;;2.30;1.50;;;;;;;;;;5068177;28;20048;-70
2022/04/24 05:43:44;;;;;;;1.75;1.45;;;;;;;;;;5068671;28;20021;-69
2022/04/24 05:46:10;;;;;;;1.48;1.20;;;;;;;;;;5068015;28;20481;-69
2022/04/24 05:48:36;;;;;;;1.65;1.30;;;;;;;;;;5074685;28;20035;-69
2022/04/24 05:51:02;;;;;;;2.90;1.20;;;;;;;;;;5077366;28;20392;-70
2022/04/24 05:53:28;;;;;;;1.00;0.90;;;;;;;;;;5067426;28;20028;-69
2022/04/24 05:55:54;;;;;;;2.15;1.58;;;;;;;;;;5075197;28;20090;-69
2022/04/24 05:58:20;;;;;;;2.92;1.42;;;;;;;;;;5070611;28;20474;-69
2022/04/24 06:00:46;;;;;;;1.52;1.25;;;;;;;;;;5072964;28;20021;-70
2022/04/24 06:03:12;;;;;;;1.52;1.27;;;;;;;;;;5074113;28;20024;-71
2022/04/24 06:05:39;;;;;;;2.25;1.20;;;;;;;;;;5080882;28;20077;-70
2022/04/24 06:08:05;;;;;;;6.28;3.50;;;;;;;;;;5070054;28;20543;-70
2022/04/24 06:10:31;;;;;;;10.23;4.30;;;;;;;;;;5072306;28;20016;-69
2022/04/24 06:12:58;;;;;;;5.88;3.67;;;;;;;;;;5072166;28;20012;-70
2022/04/24 06:15:25;;;;;;;8.55;4.68;;;;;;;;;;5072667;28;20024;-70
2022/04/24 06:17:52;;;;;;;7.35;4.05;;;;;;;;;;5073228;28;20017;-70
2022/04/24 06:20:18;;;;;;;7.95;4.28;;;;;;;;;;5073991;28;20056;-70
2022/04/24 06:22:49;;;;;;;8.85;4.20;;;;;;;;;;5070348;28;20085;-71
2022/04/24 06:25:15;;;;;;;;;;;;;;;;;;5069053;28;20138;-70
2022/04/24 06:30:48;;;;;;;3.60;2.08;;;;;;;;;;5076608;28;20809;-70
2022/04/24 06:33:14;;;;;;;4.67;2.47;;;;;;;;;;5071299;28;20478;-70
2022/04/24 06:35:41;;;;;;;3.28;2.35;;;;;;;;;;5070872;28;20393;-71
2022/04/24 06:38:10;;;;;;;5.25;2.00;;;;;;;;;;5069369;28;20028;-70
2022/04/24 06:40:36;;;;;;;2.40;1.55;;;;;;;;;;5057911;28;20017;-70
2022/04/24 06:43:07;;;;;;;2.30;1.52;;;;;;;;;;5061167;28;20434;-70
2022/04/24 06:45:33;;;;;;;;;;;;;;;;;;5050250;28;20024;-70
2022/04/24 06:48:04;;;;;;;5.60;1.30;;;;;;;;;;5042286;28;19932;-70
2022/04/24 06:50:30;;;;;;;1.63;0.90;;;;;;;;;;5055731;28;20055;-70
2022/04/24 06:53:03;;;;;;;1.13;0.93;;;;;;;;;;5045762;28;20025;-70
2022/04/24 06:55:29;;;;;;;1.55;0.95;;;;;;;;;;5048671;28;20029;-69
2022/04/24 06:57:55;;;;;;;2.55;1.25;;;;;;;;;;5046871;28;20131;-70
2022/04/24 07:00:22;;;;;;;4.90;1.23;;;;;;;;;;5051073;28;20033;-70
2022/04/24 07:02:48;;;;;;;2.00;1.02;;;;;;;;;;5049154;28;20104;-70
2022/04/24 07:05:15;;;;;;;1.60;1.10;;;;;;;;;;5050919;28;20120;-69
2022/04/24 07:07:41;;;;;;;1.13;0.90;;;;;;;;;;5055929;28;20036;-70
2022/04/24 07:10:07;;;;;;;0.68;0.52;;;;;;;;;;5061738;28;20035;-70
2022/04/24 07:12:43;;;;;;;1.52;1.02;;;;;;;;;;5058017;28;20078;-70
2022/04/24 07:15:09;;;;;;;1.90;1.20;;;;;;;;;;5053953;28;20040;-71
2022/04/24 07:17:35;;;;;;;3.15;1.17;;;;;;;;;;5058683;28;20025;-70
2022/04/24 07:20:01;;;;;;;1.50;1.13;;;;;;;;;;5053168;28;20033;-70
2022/04/24 07:22:27;;;;;;;2.38;1.38;;;;;;;;;;5056398;28;20025;-70
2022/04/24 07:24:53;;;;;;;2.83;1.50;;;;;;;;;;5056502;28;20462;-70
2022/04/24 07:27:20;;;;;;;1.73;1.10;;;;;;;;;;5055561;28;20029;-70
2022/04/24 07:29:46;;;;;;;0.90;0.90;;;;;;;;;;5061336;28;20021;-70
2022/04/24 07:32:12;;;;;;;1.45;0.90;;;;;;;;;;5058056;28;20492;-70
2022/04/24 07:34:38;;;;;;;0.98;0.75;;;;;;;;;;5060081;28;20504;-70
2022/04/24 07:37:04;;;;;;;0.47;0.47;;;;;;;;;;5056486;28;20410;-70
2022/04/24 07:39:31;;;;;;;0.57;0.52;;;;;;;;;;5050320;28;20466;-70
2022/04/24 07:41:57;;;;;;;1.50;0.65;;;;;;;;;;5060204;28;20662;-70
2022/04/24 07:44:23;;;;;;;0.93;0.80;;;;;;;;;;5052792;28;20021;-70
2022/04/24 07:46:49;;;;;;;0.90;0.80;;;;;;;;;;5057925;28;20027;-70
2022/04/24 07:49:15;;;;;;;0.75;0.75;;;;;;;;;;5051813;28;20021;-70
2022/04/24 07:51:41;;;;;;;1.35;1.25;;;;;;;;;;5051499;28;20028;-69
2022/04/24 07:54:07;;;;;;;1.27;0.82;;;;;;;;;;5057454;28;20036;-70
2022/04/24 07:56:33;;;;;;;1.75;0.85;;;;;;;;;;5059343;28;20012;-70
2022/04/24 07:58:59;;;;;;;0.93;0.68;;;;;;;;;;5058742;28;21571;-69
2022/04/24 08:01:25;;;;;;;1.27;0.95;;;;;;;;;;5052669;28;20028;-70
2022/04/24 08:03:51;;;;;;;1.30;0.85;;;;;;;;;;5057716;28;20598;-70
2022/04/24 08:06:17;;;;;;;1.13;0.70;;;;;;;;;;5059453;28;20025;-69
2022/04/24 08:08:43;;;;;;;0.68;0.68;;;;;;;;;;5057233;28;20106;-69
2022/04/24 08:11:09;;;;;;;0.50;0.50;;;;;;;;;;5058834;28;20029;-69
2022/04/24 08:13:35;;;;;;;1.02;0.70;;;;;;;;;;5057394;28;20025;-69
2022/04/24 08:16:02;;;;;;;0.90;0.82;;;;;;;;;;5055188;28;20047;-69
2022/04/24 08:18:28;;;;;;;0.98;0.68;;;;;;;;;;5059542;28;20381;-69
2022/04/24 08:20:54;;;;;;;0.77;0.65;;;;;;;;;;5059063;28;20020;-70
2022/04/24 08:23:20;;;;;;;1.00;0.65;;;;;;;;;;5055775;28;20037;-70
2022/04/24 08:25:47;;;;;;;0.50;0.50;;;;;;;;;;5055328;28;20048;-69
2022/04/24 08:28:14;;;;;;;1.02;0.73;;;;;;;;;;5057478;28;20070;-69
2022/04/24 08:30:41;;;;;;;0.70;0.70;;;;;;;;;;5053181;28;20112;-70
2022/04/24 08:33:07;;;;;;;3.08;1.35;;;;;;;;;;5039958;28;20028;-69
2022/04/24 08:35:33;;;;;;;0.70;0.70;;;;;;;;;;5049022;28;20031;-69
2022/04/24 08:37:59;;;;;;;0.85;0.80;;;;;;;;;;5045552;28;20025;-69
2022/04/24 08:40:25;;;;;;;0.77;0.70;;;;;;;;;;5041660;28;20025;-70
2022/04/24 08:42:52;;;;;;;0.70;0.60;;;;;;;;;;5062846;28;20017;-71
2022/04/24 08:45:18;;;;;;;0.50;0.50;;;;;;;;;;5056121;28;20139;-70
2022/04/24 08:47:45;;;;;;;0.40;0.40;;;;;;;;;;5055918;28;20548;-70
2022/04/24 08:50:12;;;;;;;0.63;0.63;;;;;;;;;;5055350;28;20028;-70
2022/04/24 08:52:38;;;;;;;0.75;0.60;;;;;;;;;;5053536;28;20056;-70
2022/04/24 08:55:05;;;;;;;0.43;0.43;;;;;;;;;;5056457;28;20174;-70
2022/04/24 08:57:30;;;;;;;0.40;0.40;;;;;;;;;;5040002;28;20029;-70
2022/04/24 08:59:57;;;;;;;0.70;0.60;;;;;;;;;;5047656;28;20035;-70
2022/04/24 09:02:24;;;;;;;1.05;0.80;;;;;;;;;;5048210;28;20485;-71
2022/04/24 09:04:53;;;;;;;1.30;0.70;;;;;;;;;;5042245;28;20132;-72
2022/04/24 09:07:20;;;;;;;2.80;0.70;;;;;;;;;;5035889;28;20009;-71
2022/04/24 09:09:47;;;;;;;0.50;0.50;;;;;;;;;;5044747;28;20024;-70
2022/04/24 09:12:15;;;;;;;0.70;0.70;;;;;;;;;;5047921;28;20082;-70
2022/04/24 09:14:41;;;;;;;1.42;0.90;;;;;;;;;;5040435;28;20166;-70
2022/04/24 09:17:08;;;;;;;0.73;0.73;;;;;;;;;;5037521;28;20029;-69
2022/04/24 09:19:36;;;;;;;0.63;0.63;;;;;;;;;;5046692;28;20033;-70
2022/04/24 09:22:09;;;;;;;0.82;0.80;;;;;;;;;;5048384;28;20029;-70
2022/04/24 09:24:40;;;;;;;0.77;0.77;;;;;;;;;;5046809;28;20542;-71
2022/04/24 09:27:06;;;;;;;0.80;0.73;;;;;;;;;;5039495;28;20057;-69
2022/04/24 09:29:32;;;;;;;0.90;0.80;;;;;;;;;;5048354;28;20049;-70
2022/04/24 09:31:58;;;;;;;1.20;0.90;;;;;;;;;;5040304;28;20025;-70
2022/04/24 09:34:29;;;;;;;0.75;0.75;;;;;;;;;;5052566;28;20033;-70
2022/04/24 09:37:02;;;;;;;2.80;1.15;;;;;;;;;;5058900;28;20033;-70
2022/04/24 09:39:29;;;;;;;1.65;1.00;;;;;;;;;;5056375;28;20481;-70
2022/04/24 09:42:03;;;;;;;1.02;0.70;;;;;;;;;;5055097;28;20369;-70
2022/04/24 09:44:36;;;;;;;0.63;0.63;;;;;;;;;;5052693;28;20092;-70
2022/04/24 09:47:03;;;;;;;0.90;0.90;;;;;;;;;;5052796;28;20148;-71
2022/04/24 09:49:30;;;;;;;0.98;0.85;;;;;;;;;;5052114;28;20526;-70
2022/04/24 09:51:56;;;;;;;0.57;0.57;;;;;;;;;;5053128;28;20025;-69
2022/04/24 09:54:22;;;;;;;1.42;1.00;;;;;;;;;;5056731;28;20032;-70
2022/04/24 09:56:49;;;;;;;1.42;0.70;;;;;;;;;;5056092;28;20402;-70
2022/04/24 09:59:16;;;;;;;0.77;0.77;;;;;;;;;;5058853;28;20036;-69
2022/04/24 10:01:42;;;;;;;0.70;0.70;;;;;;;;;;5055923;28;20774;-70
2022/04/24 10:04:09;;;;;;;0.73;0.73;;;;;;;;;;5063535;28;20095;-70
2022/04/24 10:06:36;;;;;;;3.40;1.13;;;;;;;;;;5042519;28;20113;-70
2022/04/24 10:09:04;;;;;;;0.55;0.55;;;;;;;;;;5050285;28;20024;-69
2022/04/24 10:11:31;;;;;;;0.77;0.77;;;;;;;;;;5051833;28;20108;-70
2022/04/24 10:14:03;;;;;;;0.82;0.60;;;;;;;;;;5051459;28;20436;-70
2022/04/24 10:16:44;;;;;;;0.60;0.60;;;;;;;;;;5048375;28;20600;-70
2022/04/24 10:19:22;;;;;;;0.52;0.52;;;;;;;;;;5063075;28;20109;-69
2022/04/24 10:21:55;;;;;;;0.80;0.80;;;;;;;;;;5051015;28;20017;-69
2022/04/24 10:24:21;;;;;;;1.27;0.95;;;;;;;;;;5042573;28;20115;-69
2022/04/24 10:26:54;;;;;;;0.75;0.70;;;;;;;;;;5063301;28;20020;-70
2022/04/24 10:29:21;;;;;;;1.02;0.77;;;;;;;;;;5041652;28;20039;-69
2022/04/24 10:31:48;;;;;;;1.33;0.95;;;;;;;;;;5049826;28;20021;-69
2022/04/24 10:34:14;;;;;;;1.77;0.80;;;;;;;;;;5049930;28;20454;-70
2022/04/24 10:37:00;;;;;;;1.40;0.93;;;;;;;;;;5051708;28;20025;-71
2022/04/24 10:39:29;;;;;;;0.88;0.77;;;;;;;;;;5047005;28;20041;-70
2022/04/24 10:41:57;;;;;;;5.50;0.80;;;;;;;;;;5051093;28;20021;-69
2022/04/24 10:44:24;;;;;;;0.82;0.80;;;;;;;;;;5056685;28;20071;-70
2022/04/24 10:46:51;;;;;;;1.60;0.60;;;;;;;;;;5050949;28;20024;-69
2022/04/24 10:49:18;;;;;;;0.93;0.82;;;;;;;;;;5046518;28;20052;-69
2022/04/24 10:51:45;;;;;;;0.80;0.80;;;;;;;;;;5039340;28;20509;-69
2022/04/24 10:54:13;;;;;;;1.00;0.88;;;;;;;;;;5042088;28;20470;-69
2022/04/24 10:56:44;;;;;;;0.90;0.70;;;;;;;;;;5050040;28;20021;-70
2022/04/24 10:59:10;;;;;;;0.30;0.30;;;;;;;;;;5049036;28;20121;-69
2022/04/24 11:01:36;;;;;;;5.72;0.73;;;;;;;;;;5050430;28;20036;-69
2022/04/24 11:04:06;;;;;;;0.65;0.65;;;;;;;;;;5049604;28;20124;-69
2022/04/24 11:06:32;;;;;;;0.43;0.43;;;;;;;;;;5049980;28;20027;-69
2022/04/24 11:09:07;;;;;;;1.15;0.80;;;;;;;;;;5049241;28;20021;-69
2022/04/24 11:11:34;;;;;;;0.50;0.43;;;;;;;;;;5049654;28;20028;-69
2022/04/24 11:14:03;;;;;;;0.28;0.25;;;;;;;;;;5047977;28;20023;-69
2022/04/24 11:16:29;;;;;;;0.35;0.35;;;;;;;;;;5044043;28;20119;-69
2022/04/24 11:18:56;;;;;;;0.65;0.50;;;;;;;;;;5041687;28;20124;-69
2022/04/24 11:21:23;;;;;;;0.50;0.50;;;;;;;;;;5047297;28;20548;-69
2022/04/24 11:23:49;;;;;;;3.05;0.50;;;;;;;;;;5048826;28;20048;-69
2022/04/24 11:26:16;;;;;;;0.25;0.25;;;;;;;;;;5050235;28;20123;-69
2022/04/24 11:28:43;;;;;;;0.28;0.28;;;;;;;;;;5038894;28;20025;-69
2022/04/24 11:31:11;;;;;;;3.63;0.80;;;;;;;;;;5056177;28;20470;-69
2022/04/24 11:33:38;;;;;;;0.40;0.40;;;;;;;;;;5048510;28;20028;-69
2022/04/24 11:36:04;;;;;;;0.60;0.60;;;;;;;;;;5050835;28;20025;-69
2022/04/24 11:38:31;;;;;;;0.55;0.55;;;;;;;;;;5055443;28;20028;-69
2022/04/24 11:40:57;;;;;;;0.82;0.82;;;;;;;;;;5048318;28;20025;-69
2022/04/24 11:43:23;;;;;;;0.50;0.50;;;;;;;;;;5049471;28;20036;-70
2022/04/24 11:51:19;;;;;;;0.80;0.80;;;;;;;;;;5041960;28;20039;-69
2022/04/24 11:53:45;;;;;;;2.65;0.90;;;;;;;;;;5050212;28;20025;-70
2022/04/24 11:56:12;;;;;;;0.60;0.60;;;;;;;;;;5046526;28;20028;-68
2022/04/24 11:58:39;;;;;;;1.10;0.55;;;;;;;;;;5049054;28;20038;-69
2022/04/24 12:01:11;;;;;;;0.28;0.28;;;;;;;;;;5057802;28;20097;-69
2022/04/24 12:03:38;;;;;;;0.30;0.30;;;;;;;;;;5052205;28;20025;-69
2022/04/24 12:06:04;;;;;;;0.85;0.77;;;;;;;;;;5048148;28;20298;-69
2022/04/24 12:08:48;;;;;;;0.60;0.60;;;;;;;;;;5046056;28;20021;-69
2022/04/24 12:11:24;;;;;;;0.43;0.43;;;;;;;;;;5056266;28;20264;-69
2022/04/24 12:14:08;;;;;;;0.63;0.60;;;;;;;;;;5048491;28;20067;-69
2022/04/24 12:16:34;;;;;;;6.20;0.73;;;;;;;;;;5052576;28;20017;-69
2022/04/24 12:19:01;;;;;;;0.40;0.40;;;;;;;;;;5057358;28;20060;-69
2022/04/24 12:21:28;;;;;;;1.00;0.70;;;;;;;;;;5046708;28;20151;-69
2022/04/24 12:23:55;;;;;;;0.57;0.57;;;;;;;;;;5049630;28;20020;-69
2022/04/24 12:26:21;;;;;;;0.50;0.50;;;;;;;;;;5055667;28;20506;-69
2022/04/24 12:28:48;;;;;;;0.95;0.60;;;;;;;;;;5056512;28;20082;-69
2022/04/24 12:31:27;;;;;;;1.05;0.80;;;;;;;;;;5056192;28;20028;-69
2022/04/24 12:33:57;;;;;;;0.68;0.68;;;;;;;;;;5056319;28;20021;-69
2022/04/24 12:36:23;;;;;;;2.03;0.70;;;;;;;;;;5055690;28;20025;-69
2022/04/24 12:38:56;;;;;;;0.52;0.52;;;;;;;;;;5056715;28;20562;-68
2022/04/24 12:41:30;;;;;;;0.40;0.40;;;;;;;;;;5058386;28;20533;-69
2022/04/24 12:43:59;;;;;;;0.50;0.50;;;;;;;;;;5055258;28;20032;-69
2022/04/24 12:46:26;;;;;;;1.77;0.40;;;;;;;;;;5057029;28;20529;-69
2022/04/24 12:48:53;;;;;;;0.30;0.30;;;;;;;;;;5062770;28;20024;-69
2022/04/24 12:51:26;;;;;;;0.43;0.43;;;;;;;;;;5058092;28;20028;-69
2022/04/24 12:53:52;;;;;;;1.60;0.47;;;;;;;;;;5055372;28;20021;-69
2022/04/24 12:56:19;;;;;;;5.38;0.60;;;;;;;;;;5057079;28;20060;-71
2022/04/24 12:58:45;;;;;;;0.82;0.82;;;;;;;;;;5055687;28;20025;-68
2022/04/24 13:01:12;;;;;;;1.58;0.82;;;;;;;;;;5056674;28;20025;-69
2022/04/24 13:03:39;;;;;;;0.65;0.60;;;;;;;;;;5056679;28;20063;-69
2022/04/24 13:06:05;;;;;;;2.60;0.70;;;;;;;;;;5057216;28;20056;-68
2022/04/24 13:08:31;;;;;;;0.98;0.60;;;;;;;;;;5055625;28;20095;-68
2022/04/24 13:10:57;;;;;;;0.63;0.63;;;;;;;;;;5050495;28;20032;-69
2022/04/24 13:13:23;;;;;;;2.90;0.60;;;;;;;;;;5051333;28;20024;-69
2022/04/24 13:18:07;;;;;;;0.50;0.50;;;;;;;;;;5055640;28;20019;-69
2022/04/24 13:18:40;;;;;;;0.70;0.70;;;;;;;;;;5048381;28;20130;-69
2022/04/24 13:21:06;;;;;;;;;;;;;;;;;;5050086;28;20033;-68
2022/04/24 13:23:33;;;;;;;0.80;0.70;;;;;;;;;;5050992;28;19920;-69
2022/04/24 13:25:59;;;;;;;1.23;0.70;;;;;;;;;;5052067;28;20074;-69
2022/04/24 13:28:25;;;;;;;1.58;0.70;;;;;;;;;;5055957;28;20021;-69
2022/04/24 13:30:51;;;;;;;1.65;0.60;;;;;;;;;;5056624;28;20021;-69
2022/04/24 13:33:18;;;;;;;1.08;0.82;;;;;;;;;;5049002;28;20017;-70
2022/04/24 13:35:44;;;;;;;2.35;0.60;;;;;;;;;;5045519;28;20022;-69
2022/04/24 13:38:19;;;;;;;0.60;0.60;;;;;;;;;;5047164;28;20017;-69
2022/04/24 13:40:45;;;;;;;0.77;0.70;;;;;;;;;;5048109;28;20048;-69
2022/04/24 13:43:12;;;;;;;0.50;0.50;;;;;;;;;;5049619;28;20082;-69
2022/04/24 13:45:39;;;;;;;0.80;0.80;;;;;;;;;;5048870;28;20467;-70
2022/04/24 13:48:06;;;;;;;1.60;0.63;;;;;;;;;;5053320;28;20049;-69
2022/04/24 13:50:35;;;;;;;3.55;0.63;;;;;;;;;;5052805;28;20459;-69
2022/04/24 13:53:01;;;;;;;0.70;0.70;;;;;;;;;;5047843;28;20036;-69
2022/04/24 13:55:28;;;;;;;0.82;0.77;;;;;;;;;;5049409;28;20470;-68
2022/04/24 13:58:03;;;;;;;1.00;0.75;;;;;;;;;;5049396;28;20064;-68
2022/04/24 14:00:31;;;;;;;0.70;0.65;;;;;;;;;;5042210;28;20486;-68
2022/04/24 14:03:04;;;;;;;0.80;0.80;;;;;;;;;;5048656;28;20108;-70
2022/04/24 14:05:31;;;;;;;1.20;0.80;;;;;;;;;;5049092;28;20091;-69
2022/04/24 14:07:58;;;;;;;1.05;0.50;;;;;;;;;;5048616;28;20096;-69
2022/04/24 14:13:28;;;;;;;1.67;0.70;;;;;;;;;;5019028;23;20185;-66
2022/04/24 14:15:54;;;;;;;1.05;0.70;;;;;;;;;;4989030;28;20029;-66
2022/04/24 14:18:20;;;;;;;2.35;0.85;;;;;;;;;;4986836;28;20420;-67
2022/04/24 14:20:46;;;;;;;1.65;0.40;;;;;;;;;;4991397;28;20094;-67
2022/04/24 14:23:12;;;;;;;1.02;0.70;;;;;;;;;;4991955;28;20174;-67
2022/04/24 14:25:38;;;;;;;0.40;0.40;;;;;;;;;;4991828;28;20478;-66
2022/04/24 14:28:04;;;;;;;1.40;0.75;;;;;;;;;;4991273;28;20031;-66
2022/04/24 14:30:31;;;;;;;0.40;0.40;;;;;;;;;;4992996;28;20355;-66
2022/04/24 14:32:57;;;;;;;1.55;0.85;;;;;;;;;;4991691;28;20471;-66
2022/04/24 14:35:24;;;;;;;0.85;0.73;;;;;;;;;;4991987;28;20105;-68
2022/04/24 14:37:50;;;;;;;0.50;0.50;;;;;;;;;;4991788;28;20383;-66
2022/04/24 14:40:16;;;;;;;0.65;0.65;;;;;;;;;;4991666;28;20034;-68
2022/04/24 14:42:44;;;;;;;0.50;0.50;;;;;;;;;;4991590;28;20037;-66
2022/04/24 14:45:10;;;;;;;0.50;0.50;;;;;;;;;;4992338;28;20042;-66
2022/04/24 14:55:51;;;;;;;0.85;0.63;;;;;;;;;;4991664;28;20087;-67
2022/04/24 14:58:18;;;;;;;2.05;0.90;;;;;;;;;;4990336;28;20419;-67
2022/04/24 15:00:44;;;;;;;1.20;0.63;;;;;;;;;;4992123;28;20029;-67
2022/04/24 15:03:12;;;;;;;2.22;0.63;;;;;;;;;;4991100;28;20160;-66
2022/04/24 15:05:38;;;;;;;2.10;0.63;;;;;;;;;;4991845;28;20030;-66
2022/04/24 15:08:05;;;;;;;0.60;0.50;;;;;;;;;;4991115;28;20288;-66
2022/04/24 15:10:32;;;;;;;2.72;0.82;;;;;;;;;;4991431;28;20027;-66
2022/04/24 15:12:58;;;;;;;4.22;0.73;;;;;;;;;;4990153;28;20561;-67
2022/04/24 15:15:24;;;;;;;0.77;0.77;;;;;;;;;;4991657;28;20030;-66
2022/04/24 15:17:50;;;;;;;0.80;0.63;;;;;;;;;;4991003;28;20077;-66